Rechercher aéroport 
image banner adimage banner adimage banner ad
image banner ad

KMPI - Mariposa-Yosemite

Situé à Mariposa, United States

ICAO - MPI, IATA - RMY

Données fournies par Airmate  

Information générale

Coordonnées: N37°30'39" W120°2'22"
Élévation : 2254 feet MSL.
Variation magnétique : 15° East
Voir autres Aéroports à California

Données opérationnelles

Special qualification required
Heure actuelle UTC:
Heure actuelle locale:
Météo à : KMCE - Merced Rgnl/Macready Field ( 49 km )
METAR: KMCE 251453Z AUTO 33006KT 10SM CLR 23/09 A2988 RMK AO2 SLP116 T02330094 53006
TAF: KMCE 251120Z 2512/2612 32008KT P6SM FEW250 FM251700 30007KT P6SM FEW250
Voir NOTAMs / SUP AIP / TFR affectant cet aéroport [VIEW]
Fréquences de communication: [VIEW]

Pistes:

Identifiant RWYQFULongueur (ft)Largeur (ft)SurfaceLDA (ft)
08100°330560ASPH
26280°330560ASPH

Coordonnées de l'aéroport

Adresse: Mariposa United States

Autres services d'aviation

Écoles de pilotage

Airborrn Aviation Services, Llc

Airborrn Aviation Services, Llc

Vue satellite de KMPI